sensor_id;sensor_type;location;lat;lon;timestamp;temperature;humidity
43581;DHT22;29175;51.030;4.606;2022-11-12T00:00:59;7.80;99.90
43581;DHT22;29175;51.030;4.606;2022-11-12T00:03:25;7.80;99.90
43581;DHT22;29175;51.030;4.606;2022-11-12T00:05:51;7.60;99.90
43581;DHT22;29175;51.030;4.606;2022-11-12T00:08:18;7.70;99.90
43581;DHT22;29175;51.030;4.606;2022-11-12T00:10:45;7.70;99.90
43581;DHT22;29175;51.030;4.606;2022-11-12T00:13:14;7.60;99.90
43581;DHT22;29175;51.030;4.606;2022-11-12T00:15:41;7.60;99.90
43581;DHT22;29175;51.030;4.606;2022-11-12T00:18:07;7.50;99.90
43581;DHT22;29175;51.030;4.606;2022-11-12T00:20:33;7.40;99.90
43581;DHT22;29175;51.030;4.606;2022-11-12T00:22:59;7.40;99.90
43581;DHT22;29175;51.030;4.606;2022-11-12T00:25:28;7.50;99.90
43581;DHT22;29175;51.030;4.606;2022-11-12T00:28:06;7.50;99.90
43581;DHT22;29175;51.030;4.606;2022-11-12T00:30:33;7.50;99.90
43581;DHT22;29175;51.030;4.606;2022-11-12T00:33:07;7.50;99.90
43581;DHT22;29175;51.030;4.606;2022-11-12T00:35:33;7.40;99.90
43581;DHT22;29175;51.030;4.606;2022-11-12T00:37:59;7.50;99.90
43581;DHT22;29175;51.030;4.606;2022-11-12T00:40:26;7.30;99.90
43581;DHT22;29175;51.030;4.606;2022-11-12T00:42:52;7.40;99.90
43581;DHT22;29175;51.030;4.606;2022-11-12T00:45:19;7.40;99.90
43581;DHT22;29175;51.030;4.606;2022-11-12T00:47:45;7.40;99.90
43581;DHT22;29175;51.030;4.606;2022-11-12T00:50:10;7.40;99.90
43581;DHT22;29175;51.030;4.606;2022-11-12T00:52:37;7.30;99.90
43581;DHT22;29175;51.030;4.606;2022-11-12T00:55:03;7.40;99.90
43581;DHT22;29175;51.030;4.606;2022-11-12T00:57:29;7.40;99.90
43581;DHT22;29175;51.030;4.606;2022-11-12T00:59:54;7.30;99.90
43581;DHT22;29175;51.030;4.606;2022-11-12T01:02:21;7.30;99.90
43581;DHT22;29175;51.030;4.606;2022-11-12T01:04:48;7.30;99.90
43581;DHT22;29175;51.030;4.606;2022-11-12T01:07:14;7.20;99.90
43581;DHT22;29175;51.030;4.606;2022-11-12T01:09:42;7.10;99.90
43581;DHT22;29175;51.030;4.606;2022-11-12T01:12:08;7.00;99.90
43581;DHT22;29175;51.030;4.606;2022-11-12T01:14:35;7.00;99.90
43581;DHT22;29175;51.030;4.606;2022-11-12T01:17:01;7.10;99.90
43581;DHT22;29175;51.030;4.606;2022-11-12T01:19:27;7.00;99.90
43581;DHT22;29175;51.030;4.606;2022-11-12T01:21:54;7.10;99.90
43581;DHT22;29175;51.030;4.606;2022-11-12T01:24:19;7.10;99.90
43581;DHT22;29175;51.030;4.606;2022-11-12T01:26:46;7.30;99.90
43581;DHT22;29175;51.030;4.606;2022-11-12T01:29:12;7.10;99.90
43581;DHT22;29175;51.030;4.606;2022-11-12T01:31:37;7.10;99.90
43581;DHT22;29175;51.030;4.606;2022-11-12T01:34:07;7.20;99.90
43581;DHT22;29175;51.030;4.606;2022-11-12T01:36:38;7.00;99.90
43581;DHT22;29175;51.030;4.606;2022-11-12T01:39:06;7.00;99.90
43581;DHT22;29175;51.030;4.606;2022-11-12T01:41:35;6.90;99.90
43581;DHT22;29175;51.030;4.606;2022-11-12T01:44:21;7.00;99.90
43581;DHT22;29175;51.030;4.606;2022-11-12T01:47:00;7.00;99.90
43581;DHT22;29175;51.030;4.606;2022-11-12T01:49:32;7.00;99.90
43581;DHT22;29175;51.030;4.606;2022-11-12T01:52:12;7.10;99.90
43581;DHT22;29175;51.030;4.606;2022-11-12T01:54:42;7.10;99.90
43581;DHT22;29175;51.030;4.606;2022-11-12T01:57:13;7.10;99.90
43581;DHT22;29175;51.030;4.606;2022-11-12T01:59:42;7.00;99.90
43581;DHT22;29175;51.030;4.606;2022-11-12T02:02:09;7.00;99.90
43581;DHT22;29175;51.030;4.606;2022-11-12T02:04:39;7.00;99.90
43581;DHT22;29175;51.030;4.606;2022-11-12T02:07:06;7.00;99.90
43581;DHT22;29175;51.030;4.606;2022-11-12T02:09:38;7.00;99.90
43581;DHT22;29175;51.030;4.606;2022-11-12T02:12:07;7.00;99.90
43581;DHT22;29175;51.030;4.606;2022-11-12T02:14:52;7.00;99.90
43581;DHT22;29175;51.030;4.606;2022-11-12T02:17:18;7.10;99.90
43581;DHT22;29175;51.030;4.606;2022-11-12T02:19:45;7.00;99.90
43581;DHT22;29175;51.030;4.606;2022-11-12T02:22:13;7.00;99.90
43581;DHT22;29175;51.030;4.606;2022-11-12T02:24:39;6.80;99.90
43581;DHT22;29175;51.030;4.606;2022-11-12T02:27:05;6.80;99.90
43581;DHT22;29175;51.030;4.606;2022-11-12T02:29:31;6.90;99.90
43581;DHT22;29175;51.030;4.606;2022-11-12T02:31:57;6.90;99.90
43581;DHT22;29175;51.030;4.606;2022-11-12T02:34:23;6.90;99.90
43581;DHT22;29175;51.030;4.606;2022-11-12T02:36:50;6.90;99.90
43581;DHT22;29175;51.030;4.606;2022-11-12T02:39:15;6.90;99.90
43581;DHT22;29175;51.030;4.606;2022-11-12T02:41:41;6.90;99.90
43581;DHT22;29175;51.030;4.606;2022-11-12T02:44:08;6.90;99.90
43581;DHT22;29175;51.030;4.606;2022-11-12T02:46:35;6.90;99.90
43581;DHT22;29175;51.030;4.606;2022-11-12T02:49:02;6.90;99.90
43581;DHT22;29175;51.030;4.606;2022-11-12T02:51:29;7.10;99.90
43581;DHT22;29175;51.030;4.606;2022-11-12T02:53:55;6.90;99.90
43581;DHT22;29175;51.030;4.606;2022-11-12T02:56:21;6.90;99.90
43581;DHT22;29175;51.030;4.606;2022-11-12T02:58:47;6.90;99.90
43581;DHT22;29175;51.030;4.606;2022-11-12T03:01:16;6.80;99.90
43581;DHT22;29175;51.030;4.606;2022-11-12T03:03:42;6.80;99.90
43581;DHT22;29175;51.030;4.606;2022-11-12T03:06:10;6.90;99.90
43581;DHT22;29175;51.030;4.606;2022-11-12T03:08:38;6.90;99.90
43581;DHT22;29175;51.030;4.606;2022-11-12T03:11:10;6.70;99.90
43581;DHT22;29175;51.030;4.606;2022-11-12T03:13:38;6.80;99.90
43581;DHT22;29175;51.030;4.606;2022-11-12T03:16:06;6.70;99.90
43581;DHT22;29175;51.030;4.606;2022-11-12T03:18:33;6.80;99.90
43581;DHT22;29175;51.030;4.606;2022-11-12T03:20:59;6.70;99.90
43581;DHT22;29175;51.030;4.606;2022-11-12T03:23:27;6.60;99.90
43581;DHT22;29175;51.030;4.606;2022-11-12T03:25:54;6.70;99.90
43581;DHT22;29175;51.030;4.606;2022-11-12T03:28:22;6.60;99.90
43581;DHT22;29175;51.030;4.606;2022-11-12T03:30:50;6.50;99.90
43581;DHT22;29175;51.030;4.606;2022-11-12T03:33:17;6.50;99.90
43581;DHT22;29175;51.030;4.606;2022-11-12T03:35:42;6.50;99.90
43581;DHT22;29175;51.030;4.606;2022-11-12T03:38:08;6.60;99.90
43581;DHT22;29175;51.030;4.606;2022-11-12T03:40:35;6.60;99.90
43581;DHT22;29175;51.030;4.606;2022-11-12T03:43:04;6.70;99.90
43581;DHT22;29175;51.030;4.606;2022-11-12T03:45:30;6.70;99.90
43581;DHT22;29175;51.030;4.606;2022-11-12T03:47:59;6.70;99.90
43581;DHT22;29175;51.030;4.606;2022-11-12T03:50:27;6.70;99.90
43581;DHT22;29175;51.030;4.606;2022-11-12T03:52:57;6.80;99.90
43581;DHT22;29175;51.030;4.606;2022-11-12T03:57:52;6.60;99.90
43581;DHT22;29175;51.030;4.606;2022-11-12T04:00:21;6.50;99.90
43581;DHT22;29175;51.030;4.606;2022-11-12T04:02:50;6.50;99.90
43581;DHT22;29175;51.030;4.606;2022-11-12T04:05:17;6.40;99.90
43581;DHT22;29175;51.030;4.606;2022-11-12T04:08:08;6.40;99.90
43581;DHT22;29175;51.030;4.606;2022-11-12T04:10:52;6.50;99.90
43581;DHT22;29175;51.030;4.606;2022-11-12T04:13:22;6.50;99.90
43581;DHT22;29175;51.030;4.606;2022-11-12T04:15:57;6.50;99.90
43581;DHT22;29175;51.030;4.606;2022-11-12T04:18:44;6.50;99.90
43581;DHT22;29175;51.030;4.606;2022-11-12T04:21:38;6.30;99.90
43581;DHT22;29175;51.030;4.606;2022-11-12T04:24:25;6.50;99.90
43581;DHT22;29175;51.030;4.606;2022-11-12T04:27:25;6.50;99.90
43581;DHT22;29175;51.030;4.606;2022-11-12T04:29:51;6.60;99.90
43581;DHT22;29175;51.030;4.606;2022-11-12T04:32:47;6.60;99.90
43581;DHT22;29175;51.030;4.606;2022-11-12T04:35:13;6.70;99.90
43581;DHT22;29175;51.030;4.606;2022-11-12T04:37:40;6.60;99.90
43581;DHT22;29175;51.030;4.606;2022-11-12T04:40:21;6.60;99.90
43581;DHT22;29175;51.030;4.606;2022-11-12T04:43:08;6.60;99.90
43581;DHT22;29175;51.030;4.606;2022-11-12T04:45:53;6.50;99.90
43581;DHT22;29175;51.030;4.606;2022-11-12T04:48:19;6.60;99.90
43581;DHT22;29175;51.030;4.606;2022-11-12T04:50:52;6.50;99.90
43581;DHT22;29175;51.030;4.606;2022-11-12T04:53:21;6.50;99.90
43581;DHT22;29175;51.030;4.606;2022-11-12T04:55:53;6.60;99.90
43581;DHT22;29175;51.030;4.606;2022-11-12T04:58:19;6.60;99.90
43581;DHT22;29175;51.030;4.606;2022-11-12T05:00:45;6.50;99.90
43581;DHT22;29175;51.030;4.606;2022-11-12T05:03:11;6.50;99.90
43581;DHT22;29175;51.030;4.606;2022-11-12T05:05:37;6.60;99.90
43581;DHT22;29175;51.030;4.606;2022-11-12T05:08:02;6.50;99.90
43581;DHT22;29175;51.030;4.606;2022-11-12T05:10:29;6.50;99.90
43581;DHT22;29175;51.030;4.606;2022-11-12T05:12:55;6.50;99.90
43581;DHT22;29175;51.030;4.606;2022-11-12T05:15:23;6.60;99.90
43581;DHT22;29175;51.030;4.606;2022-11-12T05:17:50;6.50;99.90
43581;DHT22;29175;51.030;4.606;2022-11-12T05:20:16;6.50;99.90
43581;DHT22;29175;51.030;4.606;2022-11-12T05:22:41;6.50;99.90
43581;DHT22;29175;51.030;4.606;2022-11-12T05:25:09;6.50;99.90
43581;DHT22;29175;51.030;4.606;2022-11-12T05:27:36;6.50;99.90
43581;DHT22;29175;51.030;4.606;2022-11-12T05:30:02;6.60;99.90
43581;DHT22;29175;51.030;4.606;2022-11-12T05:32:29;6.50;99.90
43581;DHT22;29175;51.030;4.606;2022-11-12T05:34:55;6.50;99.90
43581;DHT22;29175;51.030;4.606;2022-11-12T05:37:21;6.50;99.90
43581;DHT22;29175;51.030;4.606;2022-11-12T05:39:49;6.50;99.90
43581;DHT22;29175;51.030;4.606;2022-11-12T05:42:18;6.50;99.90
43581;DHT22;29175;51.030;4.606;2022-11-12T05:44:44;6.50;99.90
43581;DHT22;29175;51.030;4.606;2022-11-12T05:47:09;6.40;99.90
43581;DHT22;29175;51.030;4.606;2022-11-12T05:49:35;6.30;99.90
43581;DHT22;29175;51.030;4.606;2022-11-12T05:52:01;6.40;99.90
43581;DHT22;29175;51.030;4.606;2022-11-12T05:54:26;6.40;99.90
43581;DHT22;29175;51.030;4.606;2022-11-12T05:56:53;6.40;99.90
43581;DHT22;29175;51.030;4.606;2022-11-12T05:59:20;6.40;99.90
43581;DHT22;29175;51.030;4.606;2022-11-12T06:01:46;6.50;99.90
43581;DHT22;29175;51.030;4.606;2022-11-12T06:04:15;6.20;99.90
43581;DHT22;29175;51.030;4.606;2022-11-12T06:06:42;6.30;99.90
43581;DHT22;29175;51.030;4.606;2022-11-12T06:09:08;6.30;99.90
43581;DHT22;29175;51.030;4.606;2022-11-12T06:11:37;6.30;99.90
43581;DHT22;29175;51.030;4.606;2022-11-12T06:14:04;6.10;99.90
43581;DHT22;29175;51.030;4.606;2022-11-12T06:16:32;6.20;99.90
43581;DHT22;29175;51.030;4.606;2022-11-12T06:19:00;6.30;99.90
43581;DHT22;29175;51.030;4.606;2022-11-12T06:21:25;6.30;99.90
43581;DHT22;29175;51.030;4.606;2022-11-12T06:23:57;6.30;99.90
43581;DHT22;29175;51.030;4.606;2022-11-12T06:26:26;6.30;99.90
43581;DHT22;29175;51.030;4.606;2022-11-12T06:28:52;6.30;99.90
43581;DHT22;29175;51.030;4.606;2022-11-12T06:31:21;6.30;99.90
43581;DHT22;29175;51.030;4.606;2022-11-12T06:33:49;6.30;99.90
43581;DHT22;29175;51.030;4.606;2022-11-12T06:36:18;6.40;99.90
43581;DHT22;29175;51.030;4.606;2022-11-12T06:38:44;6.20;99.90
43581;DHT22;29175;51.030;4.606;2022-11-12T06:41:12;6.20;99.90
43581;DHT22;29175;51.030;4.606;2022-11-12T06:43:40;6.30;99.90
43581;DHT22;29175;51.030;4.606;2022-11-12T06:46:12;6.40;99.90
43581;DHT22;29175;51.030;4.606;2022-11-12T06:48:39;6.30;99.90
43581;DHT22;29175;51.030;4.606;2022-11-12T06:51:14;6.30;99.90
43581;DHT22;29175;51.030;4.606;2022-11-12T06:53:41;6.30;99.90
43581;DHT22;29175;51.030;4.606;2022-11-12T06:56:19;6.20;99.90
43581;DHT22;29175;51.030;4.606;2022-11-12T06:58:52;6.10;99.90
43581;DHT22;29175;51.030;4.606;2022-11-12T07:01:18;6.20;99.90
43581;DHT22;29175;51.030;4.606;2022-11-12T07:03:44;6.20;99.90
43581;DHT22;29175;51.030;4.606;2022-11-12T07:06:15;6.20;99.90
43581;DHT22;29175;51.030;4.606;2022-11-12T07:08:43;6.30;99.90
43581;DHT22;29175;51.030;4.606;2022-11-12T07:11:11;6.20;99.90
43581;DHT22;29175;51.030;4.606;2022-11-12T07:13:37;6.20;99.90
43581;DHT22;29175;51.030;4.606;2022-11-12T07:16:05;6.40;99.90
43581;DHT22;29175;51.030;4.606;2022-11-12T07:18:33;6.30;99.90
43581;DHT22;29175;51.030;4.606;2022-11-12T07:21:04;6.30;99.90
43581;DHT22;29175;51.030;4.606;2022-11-12T07:23:35;6.30;99.90
43581;DHT22;29175;51.030;4.606;2022-11-12T07:26:06;6.20;99.90
43581;DHT22;29175;51.030;4.606;2022-11-12T07:28:33;6.20;99.90
43581;DHT22;29175;51.030;4.606;2022-11-12T07:31:01;6.30;99.90
43581;DHT22;29175;51.030;4.606;2022-11-12T07:33:30;6.30;99.90
43581;DHT22;29175;51.030;4.606;2022-11-12T07:36:00;6.40;99.90
43581;DHT22;29175;51.030;4.606;2022-11-12T07:38:27;6.50;99.90
43581;DHT22;29175;51.030;4.606;2022-11-12T07:43:32;6.40;99.90
43581;DHT22;29175;51.030;4.606;2022-11-12T07:46:03;6.50;99.90
43581;DHT22;29175;51.030;4.606;2022-11-12T07:48:32;6.50;99.90
43581;DHT22;29175;51.030;4.606;2022-11-12T07:51:04;6.50;99.90
43581;DHT22;29175;51.030;4.606;2022-11-12T07:53:32;6.50;99.90
43581;DHT22;29175;51.030;4.606;2022-11-12T07:55:59;6.50;99.90
43581;DHT22;29175;51.030;4.606;2022-11-12T07:58:30;6.60;99.90
43581;DHT22;29175;51.030;4.606;2022-11-12T08:00:58;6.60;99.90
43581;DHT22;29175;51.030;4.606;2022-11-12T08:03:31;6.70;99.90
43581;DHT22;29175;51.030;4.606;2022-11-12T08:05:59;6.80;99.90
43581;DHT22;29175;51.030;4.606;2022-11-12T08:08:25;6.80;99.90
43581;DHT22;29175;51.030;4.606;2022-11-12T08:10:58;7.00;99.90
43581;DHT22;29175;51.030;4.606;2022-11-12T08:13:24;6.90;99.90
43581;DHT22;29175;51.030;4.606;2022-11-12T08:15:52;6.90;99.90
43581;DHT22;29175;51.030;4.606;2022-11-12T08:18:21;7.00;99.90
43581;DHT22;29175;51.030;4.606;2022-11-12T08:20:46;6.80;99.90
43581;DHT22;29175;51.030;4.606;2022-11-12T08:23:14;6.90;99.90
43581;DHT22;29175;51.030;4.606;2022-11-12T08:25:40;6.90;99.90
43581;DHT22;29175;51.030;4.606;2022-11-12T08:28:07;6.90;99.90
43581;DHT22;29175;51.030;4.606;2022-11-12T08:30:34;7.00;99.90
43581;DHT22;29175;51.030;4.606;2022-11-12T08:33:02;7.10;99.90
43581;DHT22;29175;51.030;4.606;2022-11-12T08:35:31;7.20;99.90
43581;DHT22;29175;51.030;4.606;2022-11-12T08:38:02;7.20;99.90
43581;DHT22;29175;51.030;4.606;2022-11-12T08:40:30;7.30;99.90
43581;DHT22;29175;51.030;4.606;2022-11-12T08:43:01;7.20;99.90
43581;DHT22;29175;51.030;4.606;2022-11-12T08:45:27;7.40;99.90
43581;DHT22;29175;51.030;4.606;2022-11-12T08:47:58;7.50;99.90
43581;DHT22;29175;51.030;4.606;2022-11-12T08:50:24;7.60;99.90
43581;DHT22;29175;51.030;4.606;2022-11-12T08:52:52;7.60;99.90
43581;DHT22;29175;51.030;4.606;2022-11-12T08:55:19;7.80;99.90
43581;DHT22;29175;51.030;4.606;2022-11-12T08:57:46;7.70;99.90
43581;DHT22;29175;51.030;4.606;2022-11-12T09:00:12;7.90;99.90
43581;DHT22;29175;51.030;4.606;2022-11-12T09:02:38;7.90;99.90
43581;DHT22;29175;51.030;4.606;2022-11-12T09:05:06;7.90;99.90
43581;DHT22;29175;51.030;4.606;2022-11-12T09:07:32;8.10;99.90
43581;DHT22;29175;51.030;4.606;2022-11-12T09:10:00;8.20;99.90
43581;DHT22;29175;51.030;4.606;2022-11-12T09:12:26;8.30;99.90
43581;DHT22;29175;51.030;4.606;2022-11-12T09:14:52;8.40;99.90
43581;DHT22;29175;51.030;4.606;2022-11-12T09:17:18;8.50;99.90
43581;DHT22;29175;51.030;4.606;2022-11-12T09:19:43;8.50;99.90
43581;DHT22;29175;51.030;4.606;2022-11-12T09:22:09;8.50;99.90
43581;DHT22;29175;51.030;4.606;2022-11-12T09:24:35;8.70;99.90
43581;DHT22;29175;51.030;4.606;2022-11-12T09:27:01;8.70;99.90
43581;DHT22;29175;51.030;4.606;2022-11-12T09:29:26;8.90;99.90
43581;DHT22;29175;51.030;4.606;2022-11-12T09:31:53;9.10;99.90
43581;DHT22;29175;51.030;4.606;2022-11-12T09:34:18;9.40;99.90
43581;DHT22;29175;51.030;4.606;2022-11-12T09:36:44;9.30;99.90
43581;DHT22;29175;51.030;4.606;2022-11-12T09:39:10;9.50;99.90
43581;DHT22;29175;51.030;4.606;2022-11-12T09:41:37;9.60;99.90
43581;DHT22;29175;51.030;4.606;2022-11-12T09:44:09;9.70;99.90
43581;DHT22;29175;51.030;4.606;2022-11-12T09:47:01;9.70;99.90
43581;DHT22;29175;51.030;4.606;2022-11-12T09:49:32;9.90;99.90
43581;DHT22;29175;51.030;4.606;2022-11-12T09:52:19;10.10;99.90
43581;DHT22;29175;51.030;4.606;2022-11-12T09:54:51;10.10;99.90
43581;DHT22;29175;51.030;4.606;2022-11-12T09:57:20;10.20;99.90
43581;DHT22;29175;51.030;4.606;2022-11-12T09:59:47;10.30;99.90
43581;DHT22;29175;51.030;4.606;2022-11-12T10:02:40;10.50;99.90
43581;DHT22;29175;51.030;4.606;2022-11-12T10:16:47;11.40;99.90
43581;DHT22;29175;51.030;4.606;2022-11-12T10:19:24;11.70;99.90
43581;DHT22;29175;51.030;4.606;2022-11-12T10:24:53;12.60;99.90
43581;DHT22;29175;51.030;4.606;2022-11-12T10:27:27;13.20;99.90
43581;DHT22;29175;51.030;4.606;2022-11-12T10:30:05;13.50;99.90
43581;DHT22;29175;51.030;4.606;2022-11-12T10:32:31;13.60;99.90
43581;DHT22;29175;51.030;4.606;2022-11-12T10:34:58;13.30;99.90
43581;DHT22;29175;51.030;4.606;2022-11-12T10:37:46;13.10;99.90
43581;DHT22;29175;51.030;4.606;2022-11-12T10:40:38;13.00;99.90
43581;DHT22;29175;51.030;4.606;2022-11-12T10:45:41;13.50;99.90
43581;DHT22;29175;51.030;4.606;2022-11-12T10:48:31;13.90;99.90
43581;DHT22;29175;51.030;4.606;2022-11-12T10:50:59;14.10;99.90
43581;DHT22;29175;51.030;4.606;2022-11-12T10:53:37;14.00;99.90
43581;DHT22;29175;51.030;4.606;2022-11-12T10:56:24;13.70;99.90
43581;DHT22;29175;51.030;4.606;2022-11-12T10:59:16;13.50;99.90
43581;DHT22;29175;51.030;4.606;2022-11-12T11:01:44;13.40;99.90
43581;DHT22;29175;51.030;4.606;2022-11-12T11:04:24;13.30;99.90
43581;DHT22;29175;51.030;4.606;2022-11-12T11:07:02;13.40;99.90
43581;DHT22;29175;51.030;4.606;2022-11-12T11:09:30;13.30;99.90
43581;DHT22;29175;51.030;4.606;2022-11-12T11:11:57;13.10;99.90
43581;DHT22;29175;51.030;4.606;2022-11-12T11:14:28;13.30;99.90
43581;DHT22;29175;51.030;4.606;2022-11-12T11:17:05;13.20;99.90
43581;DHT22;29175;51.030;4.606;2022-11-12T11:19:42;13.20;99.90
43581;DHT22;29175;51.030;4.606;2022-11-12T11:22:19;13.20;99.90
43581;DHT22;29175;51.030;4.606;2022-11-12T11:27:39;13.40;99.90
43581;DHT22;29175;51.030;4.606;2022-11-12T11:30:21;13.40;99.90
43581;DHT22;29175;51.030;4.606;2022-11-12T11:36:08;13.30;99.90
43581;DHT22;29175;51.030;4.606;2022-11-12T11:41:14;13.40;99.90
43581;DHT22;29175;51.030;4.606;2022-11-12T11:44:14;13.40;99.90
43581;DHT22;29175;51.030;4.606;2022-11-12T11:46:56;13.50;99.90
43581;DHT22;29175;51.030;4.606;2022-11-12T11:57:42;13.60;99.90
43581;DHT22;29175;51.030;4.606;2022-11-12T12:00:24;13.70;99.90
43581;DHT22;29175;51.030;4.606;2022-11-12T12:03:17;13.60;99.90
43581;DHT22;29175;51.030;4.606;2022-11-12T12:06:49;13.60;99.90
43581;DHT22;29175;51.030;4.606;2022-11-12T12:12:19;13.80;99.90
43581;DHT22;29175;51.030;4.606;2022-11-12T12:14:43;13.80;99.90
43581;DHT22;29175;51.030;4.606;2022-11-12T12:22:24;13.90;99.90
43581;DHT22;29175;51.030;4.606;2022-11-12T12:25:00;14.00;99.90
43581;DHT22;29175;51.030;4.606;2022-11-12T12:27:37;14.10;99.90
43581;DHT22;29175;51.030;4.606;2022-11-12T12:30:17;14.30;99.90
43581;DHT22;29175;51.030;4.606;2022-11-12T12:36:00;14.30;99.90
43581;DHT22;29175;51.030;4.606;2022-11-12T12:38:50;14.20;99.90
43581;DHT22;29175;51.030;4.606;2022-11-12T12:41:26;14.30;99.90
43581;DHT22;29175;51.030;4.606;2022-11-12T12:43:57;14.30;99.90
43581;DHT22;29175;51.030;4.606;2022-11-12T12:46:24;14.40;99.90
43581;DHT22;29175;51.030;4.606;2022-11-12T12:48:53;14.30;99.90
43581;DHT22;29175;51.030;4.606;2022-11-12T12:51:19;14.40;99.90
43581;DHT22;29175;51.030;4.606;2022-11-12T12:53:46;14.50;99.90
43581;DHT22;29175;51.030;4.606;2022-11-12T12:58:48;14.60;99.90
43581;DHT22;29175;51.030;4.606;2022-11-12T13:04:07;14.50;99.90
43581;DHT22;29175;51.030;4.606;2022-11-12T13:14:48;14.70;99.90
43581;DHT22;29175;51.030;4.606;2022-11-12T13:17:42;14.70;99.90
43581;DHT22;29175;51.030;4.606;2022-11-12T13:20:16;14.60;99.90
43581;DHT22;29175;51.030;4.606;2022-11-12T13:40:44;15.20;99.90
43581;DHT22;29175;51.030;4.606;2022-11-12T13:43:30;15.20;99.90
43581;DHT22;29175;51.030;4.606;2022-11-12T13:48:39;15.20;99.90
43581;DHT22;29175;51.030;4.606;2022-11-12T13:51:13;15.60;99.90
43581;DHT22;29175;51.030;4.606;2022-11-12T13:53:39;15.30;99.90
43581;DHT22;29175;51.030;4.606;2022-11-12T13:56:09;15.40;99.90
43581;DHT22;29175;51.030;4.606;2022-11-12T13:58:37;15.20;99.90
43581;DHT22;29175;51.030;4.606;2022-11-12T14:01:05;15.20;99.90
43581;DHT22;29175;51.030;4.606;2022-11-12T14:03:40;15.30;99.90
43581;DHT22;29175;51.030;4.606;2022-11-12T14:06:23;15.30;99.90
43581;DHT22;29175;51.030;4.606;2022-11-12T14:20:28;15.40;99.90
43581;DHT22;29175;51.030;4.606;2022-11-12T14:23:08;15.40;99.90
43581;DHT22;29175;51.030;4.606;2022-11-12T14:25:45;15.30;99.90
43581;DHT22;29175;51.030;4.606;2022-11-12T14:28:34;15.40;99.90
43581;DHT22;29175;51.030;4.606;2022-11-12T14:31:02;15.40;99.90
43581;DHT22;29175;51.030;4.606;2022-11-12T14:33:30;15.40;99.90
43581;DHT22;29175;51.030;4.606;2022-11-12T14:36:02;15.40;99.90
43581;DHT22;29175;51.030;4.606;2022-11-12T14:38:41;15.40;99.90
43581;DHT22;29175;51.030;4.606;2022-11-12T14:41:21;15.40;99.90
43581;DHT22;29175;51.030;4.606;2022-11-12T14:43:52;15.40;99.90
43581;DHT22;29175;51.030;4.606;2022-11-12T14:46:45;15.40;99.90
43581;DHT22;29175;51.030;4.606;2022-11-12T14:49:14;15.50;99.90
43581;DHT22;29175;51.030;4.606;2022-11-12T14:51:46;15.40;99.90
43581;DHT22;29175;51.030;4.606;2022-11-12T14:54:26;15.40;99.90
43581;DHT22;29175;51.030;4.606;2022-11-12T14:56:53;15.40;99.90
43581;DHT22;29175;51.030;4.606;2022-11-12T14:59:19;15.40;99.90
43581;DHT22;29175;51.030;4.606;2022-11-12T15:02:15;15.20;99.90
43581;DHT22;29175;51.030;4.606;2022-11-12T15:04:50;15.20;99.90
43581;DHT22;29175;51.030;4.606;2022-11-12T15:07:31;15.20;99.90
43581;DHT22;29175;51.030;4.606;2022-11-12T15:09:57;15.20;99.90
43581;DHT22;29175;51.030;4.606;2022-11-12T15:12:29;15.10;99.90
43581;DHT22;29175;51.030;4.606;2022-11-12T15:15:16;15.20;99.90
43581;DHT22;29175;51.030;4.606;2022-11-12T15:17:42;15.20;99.90
43581;DHT22;29175;51.030;4.606;2022-11-12T15:20:15;15.10;99.90
43581;DHT22;29175;51.030;4.606;2022-11-12T15:22:49;15.00;99.90
43581;DHT22;29175;51.030;4.606;2022-11-12T15:25:21;15.00;99.90
43581;DHT22;29175;51.030;4.606;2022-11-12T15:27:48;14.90;99.90
43581;DHT22;29175;51.030;4.606;2022-11-12T15:30:26;14.90;99.90
43581;DHT22;29175;51.030;4.606;2022-11-12T15:35:41;14.80;99.90
43581;DHT22;29175;51.030;4.606;2022-11-12T15:38:21;14.80;99.90
43581;DHT22;29175;51.030;4.606;2022-11-12T15:40:52;14.80;99.90
43581;DHT22;29175;51.030;4.606;2022-11-12T15:43:26;14.70;99.90
43581;DHT22;29175;51.030;4.606;2022-11-12T15:45:54;14.60;99.90
43581;DHT22;29175;51.030;4.606;2022-11-12T15:48:20;14.40;99.90
43581;DHT22;29175;51.030;4.606;2022-11-12T15:50:47;14.30;99.90
43581;DHT22;29175;51.030;4.606;2022-11-12T15:53:13;14.30;99.90
43581;DHT22;29175;51.030;4.606;2022-11-12T15:55:40;14.30;99.90
43581;DHT22;29175;51.030;4.606;2022-11-12T15:58:12;14.20;99.90
43581;DHT22;29175;51.030;4.606;2022-11-12T16:00:38;14.20;99.90
43581;DHT22;29175;51.030;4.606;2022-11-12T16:03:14;14.10;99.90
43581;DHT22;29175;51.030;4.606;2022-11-12T16:05:41;14.10;99.90
43581;DHT22;29175;51.030;4.606;2022-11-12T16:08:07;14.10;99.90
43581;DHT22;29175;51.030;4.606;2022-11-12T16:10:33;13.90;99.90
43581;DHT22;29175;51.030;4.606;2022-11-12T16:12:59;13.90;99.90
43581;DHT22;29175;51.030;4.606;2022-11-12T16:15:25;13.70;99.90
43581;DHT22;29175;51.030;4.606;2022-11-12T16:17:53;13.70;99.90
43581;DHT22;29175;51.030;4.606;2022-11-12T16:20:26;13.60;99.90
43581;DHT22;29175;51.030;4.606;2022-11-12T16:22:53;13.50;99.90
43581;DHT22;29175;51.030;4.606;2022-11-12T16:25:20;13.50;99.90
43581;DHT22;29175;51.030;4.606;2022-11-12T16:27:46;13.40;99.90
43581;DHT22;29175;51.030;4.606;2022-11-12T16:30:32;13.40;99.90
43581;DHT22;29175;51.030;4.606;2022-11-12T16:32:59;13.40;99.90
43581;DHT22;29175;51.030;4.606;2022-11-12T16:35:27;13.40;99.90
43581;DHT22;29175;51.030;4.606;2022-11-12T16:37:54;13.40;99.90
43581;DHT22;29175;51.030;4.606;2022-11-12T16:40:25;13.30;99.90
43581;DHT22;29175;51.030;4.606;2022-11-12T16:42:51;13.20;99.90
43581;DHT22;29175;51.030;4.606;2022-11-12T16:45:22;13.20;99.90
43581;DHT22;29175;51.030;4.606;2022-11-12T16:47:51;13.20;99.90
43581;DHT22;29175;51.030;4.606;2022-11-12T16:50:20;13.00;99.90
43581;DHT22;29175;51.030;4.606;2022-11-12T16:52:47;13.00;99.90
43581;DHT22;29175;51.030;4.606;2022-11-12T16:55:13;13.00;99.90
43581;DHT22;29175;51.030;4.606;2022-11-12T16:57:39;13.00;99.90
43581;DHT22;29175;51.030;4.606;2022-11-12T17:00:06;13.00;99.90
43581;DHT22;29175;51.030;4.606;2022-11-12T17:02:32;12.90;99.90
43581;DHT22;29175;51.030;4.606;2022-11-12T17:05:09;13.00;99.90
43581;DHT22;29175;51.030;4.606;2022-11-12T17:07:36;12.90;99.90
43581;DHT22;29175;51.030;4.606;2022-11-12T17:10:02;12.80;99.90
43581;DHT22;29175;51.030;4.606;2022-11-12T17:12:28;12.80;99.90
43581;DHT22;29175;51.030;4.606;2022-11-12T17:14:54;12.80;99.90
43581;DHT22;29175;51.030;4.606;2022-11-12T17:17:19;12.80;99.90
43581;DHT22;29175;51.030;4.606;2022-11-12T17:23:07;12.70;99.90
43581;DHT22;29175;51.030;4.606;2022-11-12T17:25:33;12.60;99.90
43581;DHT22;29175;51.030;4.606;2022-11-12T17:27:58;12.50;99.90
43581;DHT22;29175;51.030;4.606;2022-11-12T17:30:24;12.50;99.90
43581;DHT22;29175;51.030;4.606;2022-11-12T17:32:50;12.50;99.90
43581;DHT22;29175;51.030;4.606;2022-11-12T17:35:15;12.40;99.90
43581;DHT22;29175;51.030;4.606;2022-11-12T17:37:41;12.40;99.90
43581;DHT22;29175;51.030;4.606;2022-11-12T17:40:07;12.40;99.90
43581;DHT22;29175;51.030;4.606;2022-11-12T17:42:33;12.40;99.90